Time;durP1;ratioP1;P1;durP2;ratioP2;P2;SDS_P1;SDS_P2;PMS_P1;PMS_P2;Temp;Humidity;BMP_temperature;BMP_pressure;BME280_temperature;BME280_humidity;BME280_pressure;Samples;Min_cycle;Max_cycle;Signal;HPM_P1;HPM_P2
2021/01/30 00:02:04;;;;;;;45.50;25.77;;;2.20;83.60;;;;;;4966487;28;87721;-76
2021/01/30 00:04:30;;;;;;;46.93;26.67;;;2.30;83.40;;;;;;4984328;28;87490;-76
2021/01/30 00:06:56;;;;;;;42.03;24.83;;;2.20;82.90;;;;;;4985503;28;88269;-76
2021/01/30 00:09:24;;;;;;;45.00;25.37;;;2.00;83.90;;;;;;4986061;28;88666;-76
2021/01/30 00:11:53;;;;;;;42.80;25.43;;;1.90;84.60;;;;;;4987710;28;86948;-76
2021/01/30 00:14:31;;;;;;;49.67;26.43;;;1.80;85.40;;;;;;4989098;28;87436;-76
2021/01/30 00:16:58;;;;;;;44.53;26.60;;;1.80;85.60;;;;;;4985106;28;87004;-75
2021/01/30 00:19:24;;;;;;;41.60;26.23;;;1.90;85.20;;;;;;4981197;28;91412;-75
2021/01/30 00:21:53;;;;;;;39.30;23.03;;;1.80;86.00;;;;;;4981144;28;87395;-76
2021/01/30 00:24:20;;;;;;;40.70;25.10;;;1.60;86.50;;;;;;4980319;28;88032;-76
2021/01/30 00:27:02;;;;;;;39.83;23.83;;;1.60;87.10;;;;;;4981918;28;88744;-76
2021/01/30 00:29:30;;;;;;;;;;;1.60;87.20;;;;;;4981608;28;91441;-75
2021/01/30 00:31:56;;;;;;;39.37;23.30;;;1.60;87.00;;;;;;4999133;28;87628;-76
2021/01/30 00:34:24;;;;;;;36.43;23.50;;;1.60;86.90;;;;;;4980825;28;87541;-76
2021/01/30 00:36:51;;;;;;;38.90;22.97;;;1.70;86.60;;;;;;4965709;28;91737;-76
2021/01/30 00:39:17;;;;;;;42.10;23.60;;;1.70;86.40;;;;;;4981355;28;91353;-76
2021/01/30 00:41:43;;;;;;;39.40;24.40;;;1.70;86.20;;;;;;4982516;28;86941;-76
2021/01/30 00:44:09;;;;;;;43.17;26.00;;;1.70;86.60;;;;;;4981119;28;86926;-75
2021/01/30 00:46:35;;;;;;;41.60;24.97;;;1.70;86.80;;;;;;4981301;28;91249;-75
2021/01/30 00:49:01;;;;;;;45.53;26.03;;;1.60;86.80;;;;;;4963408;28;91480;-76
2021/01/30 00:51:27;;;;;;;40.40;24.30;;;1.50;87.10;;;;;;4979831;28;88090;-76
2021/01/30 00:53:57;;;;;;;40.10;25.57;;;1.40;87.60;;;;;;4980499;28;87917;-76
2021/01/30 00:56:23;;;;;;;40.67;23.10;;;1.50;88.10;;;;;;4963530;28;91538;-76
2021/01/30 00:58:50;;;;;;;42.50;24.97;;;1.30;88.80;;;;;;4981101;28;88079;-75
2021/01/30 01:01:16;;;;;;;42.03;24.20;;;1.20;89.00;;;;;;4981342;28;87317;-75
2021/01/30 01:03:43;;;;;;;41.20;25.80;;;1.10;89.50;;;;;;4964333;28;88216;-75
2021/01/30 01:06:09;;;;;;;38.10;23.10;;;1.10;89.90;;;;;;4979867;28;91666;-75
2021/01/30 01:08:35;;;;;;;42.23;25.40;;;1.10;90.20;;;;;;4980817;28;91369;-75
2021/01/30 01:11:01;;;;;;;45.17;25.73;;;1.20;89.90;;;;;;4981260;28;87138;-75
2021/01/30 01:13:28;;;;;;;44.00;25.43;;;1.20;89.60;;;;;;4963565;28;88026;-75
2021/01/30 01:15:55;;;;;;;42.00;26.00;;;1.10;89.80;;;;;;4979894;28;88762;-75
2021/01/30 01:18:21;;;;;;;46.67;26.83;;;1.00;90.00;;;;;;4979466;28;91777;-75
2021/01/30 01:20:47;;;;;;;42.17;25.47;;;1.00;90.20;;;;;;4980564;28;86887;-75
2021/01/30 01:23:13;;;;;;;42.23;25.00;;;0.80;90.50;;;;;;4980035;28;87089;-75
2021/01/30 01:25:38;;;;;;;40.07;25.20;;;0.80;90.80;;;;;;4964223;28;91208;-75
2021/01/30 01:28:04;;;;;;;43.50;25.03;;;0.90;90.90;;;;;;4963834;28;91350;-75
2021/01/30 01:30:30;;;;;;;45.97;26.13;;;1.00;90.50;;;;;;4981607;28;86956;-76
2021/01/30 01:32:56;;;;;;;40.63;25.77;;;1.10;90.10;;;;;;4981767;28;86283;-75
2021/01/30 01:35:25;;;;;;;39.63;24.17;;;1.10;89.90;;;;;;4979244;28;90056;-75
2021/01/30 01:37:52;;;;;;;41.80;25.20;;;1.20;89.80;;;;;;4979328;28;91845;-75
2021/01/30 01:40:38;;;;;;;41.27;25.87;;;1.20;89.20;;;;;;4980261;28;88635;-75
2021/01/30 01:43:16;;;;;;;42.93;23.70;;;1.20;89.80;;;;;;4979838;28;87323;-76
2021/01/30 01:45:48;;;;;;;36.77;21.70;;;1.20;89.20;;;;;;4979801;28;91971;-76
2021/01/30 01:48:23;;;;;;;37.20;21.15;;;1.20;88.70;;;;;;4963045;28;91323;-75
2021/01/30 01:50:51;;;;;;;42.20;21.87;;;1.20;88.70;;;;;;4964157;28;86942;-75
2021/01/30 01:53:27;;;;;;;37.10;21.73;;;1.20;88.80;;;;;;4963079;28;87459;-76
2021/01/30 01:55:59;;;;;;;35.90;20.13;;;1.20;88.90;;;;;;4981818;28;88113;-76
2021/01/30 01:58:26;;;;;;;33.37;19.67;;;1.20;88.90;;;;;;4963220;28;91518;-76
2021/01/30 02:00:53;;;;;;;32.77;19.57;;;1.20;89.00;;;;;;4963247;28;87338;-76
2021/01/30 02:03:23;;;;;;;36.27;20.63;;;1.20;89.30;;;;;;4979410;28;86968;-75
2021/01/30 02:05:48;;;;;;;37.33;21.13;;;1.20;89.00;;;;;;4980487;28;89121;-76
2021/01/30 02:08:18;;;;;;;34.70;20.47;;;1.10;88.90;;;;;;4978754;28;90601;-75
2021/01/30 02:10:49;;;;;;;35.60;20.67;;;0.80;90.10;;;;;;4979469;28;87310;-76
2021/01/30 02:13:32;;;;;;;38.70;22.08;;;0.80;90.70;;;;;;4979217;28;86988;-75
2021/01/30 02:16:23;;;;;;;36.40;20.87;;;0.80;90.50;;;;;;4981105;28;88683;-75
2021/01/30 02:19:09;;;;;;;36.90;22.27;;;0.90;90.30;;;;;;4979305;28;91157;-76
2021/01/30 02:22:24;;;;;;;40.00;22.43;;;1.00;90.20;;;;;;4967955;28;86846;-76
2021/01/30 02:25:23;;;;;;;39.03;21.77;;;0.90;90.10;;;;;;4926824;28;88185;-76
2021/01/30 02:28:24;;;;;;;38.27;22.13;;;0.90;90.00;;;;;;4979598;28;91557;-75
2021/01/30 02:31:28;;;;;;;39.10;21.43;;;1.00;90.00;;;;;;4969378;28;91643;-75
2021/01/30 02:34:02;;;;;;;42.07;22.57;;;0.90;90.00;;;;;;4979269;28;87795;-76
2021/01/30 02:37:03;;;;;;;43.17;23.20;;;0.80;90.20;;;;;;4980455;28;87319;-76
2021/01/30 02:39:44;;;;;;;43.97;21.97;;;0.70;90.70;;;;;;4977091;28;91442;-75
2021/01/30 02:42:19;;;;;;;38.17;22.47;;;0.70;90.90;;;;;;4980745;28;88619;-76
2021/01/30 02:44:53;;;;;;;43.13;23.93;;;0.70;90.80;;;;;;4980159;28;87281;-76
2021/01/30 02:47:21;;;;;;;43.57;23.90;;;0.60;90.90;;;;;;4978446;28;86817;-75
2021/01/30 02:49:56;;;;;;;41.73;23.30;;;0.60;91.20;;;;;;4979008;28;88308;-76
2021/01/30 02:52:25;;;;;;;42.17;23.33;;;0.70;90.90;;;;;;4978269;28;90921;-75
2021/01/30 02:54:57;;;;;;;43.20;24.27;;;0.60;90.90;;;;;;4979648;28;86972;-76
2021/01/30 02:57:24;;;;;;;38.85;23.00;;;0.60;91.00;;;;;;4979581;28;87166;-75
2021/01/30 02:59:55;;;;;;;42.83;23.43;;;0.50;91.20;;;;;;4978493;28;91977;-75
2021/01/30 03:02:23;;;;;;;40.53;23.03;;;0.50;91.30;;;;;;4962064;28;92137;-75
2021/01/30 03:04:54;;;;;;;43.90;24.13;;;0.50;91.20;;;;;;4962654;28;87408;-76
2021/01/30 03:07:46;;;;;;;45.25;25.63;;;0.40;91.70;;;;;;4962223;28;88003;-75
2021/01/30 03:10:24;;;;;;;49.03;27.10;;;0.40;91.70;;;;;;4970086;28;90518;-75
2021/01/30 03:13:18;;;;;;;48.23;28.33;;;0.30;91.70;;;;;;4980980;28;86839;-76
2021/01/30 03:16:13;;;;;;;49.13;29.77;;;0.30;92.20;;;;;;4979416;28;87059;-76
2021/01/30 03:18:46;;;;;;;56.57;31.63;;;0.30;92.00;;;;;;4980042;28;86115;-75
2021/01/30 03:21:16;;;;;;;54.43;32.27;;;0.50;91.70;;;;;;4980648;28;88169;-76
2021/01/30 03:23:42;;;;;;;57.20;32.43;;;0.60;91.50;;;;;;4980335;28;88514;-76
2021/01/30 03:26:14;;;;;;;59.77;35.53;;;0.60;91.40;;;;;;4978621;28;88372;-76
2021/01/30 03:28:40;;;;;;;51.97;33.28;;;0.50;91.70;;;;;;4979046;28;88460;-76
2021/01/30 03:31:06;;;;;;;62.93;36.13;;;0.50;91.70;;;;;;4978223;28;91343;-75
2021/01/30 03:33:32;;;;;;;61.07;36.47;;;0.40;91.50;;;;;;4978771;28;90618;-75
2021/01/30 03:35:58;;;;;;;66.70;38.63;;;0.40;91.80;;;;;;4963114;28;86909;-76
2021/01/30 03:38:24;;;;;;;68.27;40.13;;;0.40;91.90;;;;;;4978279;28;87697;-75
2021/01/30 03:40:49;;;;;;;63.50;38.20;;;0.40;91.70;;;;;;4961493;28;90903;-76
2021/01/30 03:43:16;;;;;;;62.40;39.20;;;0.50;91.40;;;;;;4978958;28;88118;-75
2021/01/30 03:45:42;;;;;;;66.87;39.40;;;0.50;91.40;;;;;;4980137;28;86830;-76
2021/01/30 03:48:08;;;;;;;65.60;39.07;;;0.40;91.20;;;;;;4963266;28;87750;-75
2021/01/30 03:50:34;;;;;;;69.57;43.43;;;0.40;91.40;;;;;;4962305;28;92379;-76
2021/01/30 03:53:01;;;;;;;70.17;44.07;;;0.50;91.50;;;;;;4981346;28;88453;-76
2021/01/30 03:55:27;;;;;;;72.67;43.97;;;0.60;91.40;;;;;;4981021;28;86935;-75
2021/01/30 03:57:53;;;;;;;73.63;43.53;;;0.60;91.20;;;;;;4980694;28;87387;-75
2021/01/30 04:00:24;;;;;;;72.77;45.00;;;0.60;90.80;;;;;;4984112;28;88206;-75
2021/01/30 04:02:50;;;;;;;71.63;43.07;;;0.50;91.20;;;;;;4987749;28;91432;-76
2021/01/30 04:05:24;;;;;;;74.27;42.67;;;0.40;91.20;;;;;;4989679;28;86857;-76
2021/01/30 04:07:52;;;;;;;77.77;44.73;;;0.40;91.00;;;;;;4988153;28;86524;-76
2021/01/30 04:10:23;;;;;;;75.37;43.30;;;0.30;91.40;;;;;;4981113;28;91588;-76
2021/01/30 04:12:49;;;;;;;76.35;45.95;;;0.20;91.50;;;;;;4965544;28;91168;-76
2021/01/30 04:15:22;;;;;;;76.23;45.57;;;0.20;91.60;;;;;;4981105;28;88013;-76
2021/01/30 04:17:48;;;;;;;74.67;46.33;;;0.30;91.50;;;;;;4981499;28;87776;-75
2021/01/30 04:20:15;;;;;;;76.53;43.87;;;0.30;91.20;;;;;;4982770;28;86913;-76
2021/01/30 04:22:41;;;;;;;75.03;43.47;;;0.30;91.20;;;;;;4981861;28;87942;-75
2021/01/30 04:25:08;;;;;;;78.30;46.70;;;0.30;91.40;;;;;;4981275;28;87190;-75
2021/01/30 04:27:33;;;;;;;69.10;43.47;;;0.30;91.20;;;;;;4980662;28;87198;-76
2021/01/30 04:29:59;;;;;;;70.20;42.97;;;0.50;90.90;;;;;;4981307;28;88484;-75
2021/01/30 04:32:25;;;;;;;72.70;42.47;;;0.40;90.60;;;;;;4979571;28;90980;-75
2021/01/30 04:34:51;;;;;;;67.03;40.83;;;0.40;90.70;;;;;;4981163;28;87293;-75
2021/01/30 04:37:17;;;;;;;65.13;40.27;;;0.40;90.50;;;;;;4981328;28;87527;-75
2021/01/30 04:39:43;;;;;;;72.70;41.27;;;0.20;90.80;;;;;;4980177;28;89693;-76
2021/01/30 04:42:15;;;;;;;76.63;43.20;;;0.10;91.30;;;;;;4964759;28;92067;-75
2021/01/30 04:44:52;;;;;;;;;;;0.10;91.20;;;;;;4964500;28;87087;-75
2021/01/30 04:47:45;;;;;;;65.27;35.90;;;0.20;91.20;;;;;;4983065;28;87563;-75
2021/01/30 04:50:17;;;;;;;66.13;38.90;;;0.10;91.00;;;;;;4964360;28;91145;-76
2021/01/30 04:52:45;;;;;;;68.25;39.60;;;0.10;91.30;;;;;;4980480;28;88389;-76
2021/01/30 04:55:31;;;;;;;63.50;38.10;;;0.10;91.00;;;;;;4981570;28;88692;-75
2021/01/30 04:58:13;;;;;;;61.27;37.77;;;0.30;91.00;;;;;;4961695;28;86407;-76
2021/01/30 05:00:54;;;;;;;66.05;36.60;;;0.40;90.80;;;;;;4975646;28;90496;-75
2021/01/30 05:03:53;;;;;;;61.70;35.87;;;0.30;90.50;;;;;;4961407;28;87605;-75
2021/01/30 05:06:29;;;;;;;68.47;39.03;;;0.30;91.00;;;;;;4959139;28;88014;-76
2021/01/30 05:09:04;;;;;;;64.73;40.20;;;0.30;91.00;;;;;;4961554;28;87113;-76
2021/01/30 05:11:31;;;;;;;66.13;40.20;;;0.30;91.00;;;;;;4959281;28;91509;-75
2021/01/30 05:14:10;;;;;;;63.07;38.70;;;0.20;91.40;;;;;;4962362;28;87969;-76
2021/01/30 05:16:40;;;;;;;64.17;37.23;;;0.20;91.60;;;;;;4960235;28;87691;-75
2021/01/30 05:19:11;;;;;;;71.00;41.60;;;0.20;91.70;;;;;;4960827;28;86976;-75
2021/01/30 05:21:37;;;;;;;64.63;37.13;;;0.20;91.90;;;;;;4960892;28;88149;-76
2021/01/30 05:24:03;;;;;;;64.13;38.93;;;0.40;91.60;;;;;;4961337;28;88102;-76
2021/01/30 05:26:44;;;;;;;60.50;38.07;;;0.40;91.40;;;;;;4959910;28;86978;-75
2021/01/30 05:29:28;;;;;;;60.37;36.33;;;0.50;91.40;;;;;;4962261;28;87116;-76
2021/01/30 05:32:23;;;;;;;55.40;36.60;;;0.50;90.90;;;;;;4992649;28;92788;-75
2021/01/30 05:35:21;;;;;;;59.93;36.87;;;0.60;91.30;;;;;;4960299;28;92026;-75
2021/01/30 05:37:56;;;;;;;60.50;37.47;;;0.70;90.40;;;;;;4959384;28;86927;-75
2021/01/30 05:40:44;;;;;;;55.73;34.07;;;0.70;90.10;;;;;;4960676;28;88224;-76
2021/01/30 05:43:27;;;;;;;47.07;25.97;;;0.70;90.20;;;;;;4977010;28;91724;-76
2021/01/30 05:45:57;;;;;;;41.30;25.40;;;0.70;89.20;;;;;;4962179;28;88205;-76
2021/01/30 05:48:28;;;;;;;37.53;24.10;;;0.60;90.10;;;;;;4944433;28;87357;-76
2021/01/30 05:50:59;;;;;;;33.10;21.08;;;0.40;90.50;;;;;;4960916;28;88324;-76
2021/01/30 05:53:27;;;;;;;32.63;20.80;;;0.20;91.10;;;;;;4960088;28;91069;-75
2021/01/30 05:55:55;;;;;;;33.00;21.43;;;0.10;91.80;;;;;;4960166;28;91781;-76
2021/01/30 05:58:23;;;;;;;34.57;21.37;;;0.20;91.40;;;;;;4959988;28;87862;-76
2021/01/30 06:00:50;;;;;;;30.80;20.67;;;0.20;91.60;;;;;;4959719;28;88339;-76
2021/01/30 06:03:23;;;;;;;31.43;20.17;;;0.30;91.10;;;;;;4960148;28;91700;-76
2021/01/30 06:06:09;;;;;;;28.33;19.37;;;0.30;90.70;;;;;;4960961;28;88527;-75
2021/01/30 06:08:35;;;;;;;28.70;17.80;;;0.40;90.50;;;;;;4959945;28;87371;-75
2021/01/30 06:11:07;;;;;;;28.47;18.00;;;0.40;89.70;;;;;;4959610;28;88190;-75
2021/01/30 06:13:33;;;;;;;30.25;19.23;;;0.40;89.20;;;;;;4975757;28;90997;-75
2021/01/30 06:16:01;;;;;;;33.70;21.03;;;0.40;89.50;;;;;;4961560;28;88451;-76
2021/01/30 06:18:29;;;;;;;36.90;22.73;;;0.40;89.40;;;;;;4975831;28;87073;-76
2021/01/30 06:20:59;;;;;;;35.80;24.23;;;0.50;89.70;;;;;;4961301;28;86963;-76
2021/01/30 06:23:25;;;;;;;38.13;22.87;;;0.50;88.80;;;;;;4942612;28;92784;-77
2021/01/30 06:25:53;;;;;;;34.63;21.77;;;0.50;89.30;;;;;;4960601;28;88960;-75
2021/01/30 06:28:30;;;;;;;37.57;21.50;;;0.50;89.00;;;;;;4960017;28;87007;-75
2021/01/30 06:31:14;;;;;;;29.40;19.60;;;0.50;89.10;;;;;;4959715;28;86869;-75
2021/01/30 06:33:50;;;;;;;29.90;20.23;;;0.40;89.10;;;;;;4959286;28;87044;-75
2021/01/30 06:36:24;;;;;;;28.23;17.10;;;0.50;89.00;;;;;;4959789;28;91428;-76
2021/01/30 06:38:58;;;;;;;23.80;15.87;;;0.50;88.10;;;;;;4959653;28;87010;-75
2021/01/30 06:41:27;;;;;;;23.03;13.97;;;0.40;88.80;;;;;;4960379;28;88409;-76
2021/01/30 06:44:21;;;;;;;25.10;14.53;;;0.40;87.40;;;;;;4959487;28;88872;-76
2021/01/30 06:47:07;;;;;;;18.63;12.13;;;0.50;87.40;;;;;;4975587;28;86948;-76
2021/01/30 06:49:36;;;;;;;20.20;11.80;;;0.60;86.80;;;;;;4958423;28;87808;-75
2021/01/30 06:52:09;;;;;;;20.30;13.17;;;0.70;84.80;;;;;;4959715;28;86930;-76
2021/01/30 06:54:35;;;;;;;18.73;11.47;;;0.60;85.20;;;;;;4958915;28;88345;-75
2021/01/30 06:57:12;;;;;;;19.27;11.70;;;0.60;85.40;;;;;;4960144;28;88204;-75
2021/01/30 06:59:52;;;;;;;17.73;10.57;;;0.70;85.50;;;;;;4960669;28;86808;-75
2021/01/30 07:02:38;;;;;;;17.77;11.03;;;0.80;85.50;;;;;;4961322;28;86939;-76
2021/01/30 07:06:01;;;;;;;22.57;12.37;;;0.90;85.20;;;;;;4961367;28;88532;-76
2021/01/30 07:08:51;;;;;;;19.95;12.45;;;1.00;84.20;;;;;;4975474;28;89611;-75
2021/01/30 07:11:38;;;;;;;20.67;11.53;;;1.00;84.10;;;;;;4959494;28;87092;-75
2021/01/30 07:14:25;;;;;;;18.23;12.03;;;1.10;83.50;;;;;;4974305;28;86877;-75
2021/01/30 07:17:12;;;;;;;21.53;12.80;;;1.10;83.70;;;;;;4976463;28;92318;-76
2021/01/30 07:20:09;;;;;;;20.63;11.97;;;1.10;83.50;;;;;;4975810;28;89403;-75
2021/01/30 07:22:55;;;;;;;18.77;13.70;;;1.20;83.70;;;;;;4976790;28;86994;-76
2021/01/30 07:25:26;;;;;;;24.73;14.90;;;1.20;83.10;;;;;;4978156;28;86923;-75
2021/01/30 07:28:14;;;;;;;22.47;14.53;;;1.20;83.00;;;;;;4977099;28;91483;-75
2021/01/30 07:30:48;;;;;;;22.87;14.30;;;1.20;82.80;;;;;;4977271;28;87880;-75
2021/01/30 07:33:25;;;;;;;22.07;14.13;;;1.30;82.70;;;;;;4974784;28;87284;-76
2021/01/30 07:36:11;;;;;;;27.37;16.13;;;1.30;82.60;;;;;;4982084;28;88120;-75
2021/01/30 07:38:47;;;;;;;28.00;17.73;;;1.40;82.10;;;;;;4983433;28;87858;-76
2021/01/30 07:41:26;;;;;;;31.70;19.40;;;1.40;81.70;;;;;;4983466;28;87977;-76
2021/01/30 07:44:14;;;;;;;29.00;18.73;;;1.40;81.70;;;;;;4966975;28;87923;-76
2021/01/30 07:46:45;;;;;;;28.23;18.40;;;1.40;81.40;;;;;;4985620;28;86909;-76
2021/01/30 07:49:23;;;;;;;29.50;19.80;;;1.50;81.20;;;;;;4985657;28;87880;-76
2021/01/30 07:52:01;;;;;;;33.17;20.47;;;1.50;80.70;;;;;;4980465;28;87160;-76
2021/01/30 07:54:27;;;;;;;34.03;20.90;;;1.50;81.00;;;;;;4984905;28;87490;-76
2021/01/30 07:57:28;;;;;;;37.47;23.17;;;1.60;80.50;;;;;;4984425;28;87521;-76
2021/01/30 08:00:06;;;;;;;36.13;22.70;;;1.50;80.50;;;;;;4979925;28;91446;-76
2021/01/30 08:03:00;;;;;;;46.37;25.27;;;1.50;80.80;;;;;;4982471;28;87027;-76
2021/01/30 08:05:50;;;;;;;41.00;25.90;;;1.60;80.30;;;;;;5002141;28;87659;-76
2021/01/30 08:08:40;;;;;;;53.07;33.90;;;1.70;80.50;;;;;;4982241;28;87616;-75
2021/01/30 08:11:30;;;;;;;50.37;31.37;;;1.70;80.00;;;;;;4981055;28;89287;-76
2021/01/30 08:14:38;;;;;;;51.70;31.37;;;1.80;79.90;;;;;;4981389;28;89015;-76
2021/01/30 08:17:19;;;;;;;49.90;31.13;;;1.80;79.90;;;;;;5011545;28;87147;-76
2021/01/30 08:19:50;;;;;;;61.20;35.83;;;1.90;79.60;;;;;;4978149;28;87540;-76
2021/01/30 08:22:39;;;;;;;57.30;36.10;;;1.90;79.20;;;;;;4983703;28;88330;-75
2021/01/30 08:25:15;;;;;;;62.87;39.97;;;1.90;79.30;;;;;;4972451;28;91478;-76
2021/01/30 08:27:46;;;;;;;65.87;42.93;;;1.90;79.70;;;;;;5001632;28;88613;-75
2021/01/30 08:30:17;;;;;;;75.63;43.67;;;2.00;79.00;;;;;;4983957;28;88131;-76
2021/01/30 08:32:58;;;;;;;74.30;47.87;;;2.00;79.50;;;;;;4999628;28;88396;-76
2021/01/30 08:35:24;;;;;;;79.90;49.53;;;2.00;79.40;;;;;;4993553;28;88535;-76
2021/01/30 08:38:09;;;;;;;78.10;50.57;;;2.00;79.90;;;;;;4991594;28;87934;-76
2021/01/30 08:40:52;;;;;;;82.03;51.93;;;2.00;79.50;;;;;;4975093;28;87432;-75
2021/01/30 08:43:32;;;;;;;84.77;52.63;;;2.10;79.70;;;;;;4980612;28;88077;-76
2021/01/30 08:46:25;;;;;;;86.40;54.53;;;2.10;79.40;;;;;;4969865;28;91849;-76
2021/01/30 08:49:15;;;;;;;91.50;56.63;;;2.20;78.80;;;;;;5015881;28;87320;-76
2021/01/30 08:51:43;;;;;;;96.00;56.83;;;2.20;78.80;;;;;;4976892;28;87158;-76
2021/01/30 08:54:45;;;;;;;90.63;55.83;;;2.30;78.40;;;;;;4975437;28;91329;-76
2021/01/30 08:57:31;;;;;;;77.70;50.93;;;2.20;78.30;;;;;;4962333;28;90924;-76
2021/01/30 09:00:30;;;;;;;80.93;51.30;;;2.30;77.60;;;;;;5030472;28;87135;-75
2021/01/30 09:03:00;;;;;;;77.40;49.67;;;2.30;77.60;;;;;;4999246;28;87967;-75
2021/01/30 09:05:26;;;;;;;73.80;46.43;;;2.40;76.80;;;;;;4999105;28;92480;-75
2021/01/30 09:07:53;;;;;;;81.13;48.73;;;2.50;76.20;;;;;;4982807;28;91720;-75
2021/01/30 09:10:22;;;;;;;68.50;45.07;;;2.50;75.70;;;;;;5001877;28;86916;-75
2021/01/30 09:12:57;;;;;;;70.80;46.43;;;2.60;75.70;;;;;;4969726;28;88068;-76
2021/01/30 09:15:41;;;;;;;71.07;45.60;;;2.60;75.30;;;;;;4981466;28;87822;-76
2021/01/30 09:18:17;;;;;;;70.20;44.60;;;2.50;75.60;;;;;;4963933;28;91030;-76
2021/01/30 09:21:23;;;;;;;68.67;45.57;;;2.40;76.30;;;;;;4963321;28;88263;-76
2021/01/30 09:24:29;;;;;;;71.33;46.03;;;2.40;76.20;;;;;;4962671;28;87960;-76
2021/01/30 09:27:16;;;;;;;61.27;43.17;;;2.50;76.50;;;;;;4979983;28;91032;-76
2021/01/30 09:29:45;;;;;;;64.13;42.37;;;2.50;75.10;;;;;;4963254;28;91189;-76
2021/01/30 09:32:14;;;;;;;64.03;43.70;;;2.50;75.10;;;;;;4979256;28;88303;-76
2021/01/30 09:34:53;;;;;;;60.73;42.23;;;2.50;75.40;;;;;;4980329;28;87648;-76
2021/01/30 09:37:34;;;;;;;65.13;41.77;;;2.70;75.20;;;;;;4964259;28;90938;-76
2021/01/30 09:40:01;;;;;;;59.13;41.28;;;2.80;74.10;;;;;;4980849;28;91313;-76
2021/01/30 09:42:28;;;;;;;61.60;41.80;;;2.90;73.30;;;;;;4980713;28;86919;-76
2021/01/30 09:45:15;;;;;;;59.57;39.57;;;3.00;72.80;;;;;;4981334;28;87007;-76
2021/01/30 09:47:48;;;;;;;60.40;40.10;;;3.30;72.80;;;;;;4979191;28;88402;-74
2021/01/30 09:50:20;;;;;;;69.77;42.70;;;3.30;71.00;;;;;;5011470;28;91636;-76
2021/01/30 09:52:59;;;;;;;57.78;38.42;;;3.40;71.20;;;;;;4979813;28;86996;-76
2021/01/30 09:55:25;;;;;;;58.73;39.50;;;3.50;71.40;;;;;;4979861;28;86962;-76
2021/01/30 09:58:05;;;;;;;54.10;40.23;;;3.60;71.20;;;;;;4979113;28;91715;-75
2021/01/30 10:00:38;;;;;;;55.93;39.70;;;3.60;70.50;;;;;;4982300;28;88456;-76
2021/01/30 10:03:16;;;;;;;53.60;39.87;;;3.60;70.10;;;;;;4962196;28;87423;-77
2021/01/30 10:05:53;;;;;;;54.00;39.37;;;3.70;70.00;;;;;;4978585;28;88155;-75
2021/01/30 10:08:33;;;;;;;51.37;37.10;;;3.60;69.50;;;;;;4976458;28;91302;-75
2021/01/30 10:11:17;;;;;;;53.10;38.57;;;3.60;70.20;;;;;;4975339;28;91223;-75
2021/01/30 10:13:56;;;;;;;54.53;38.30;;;3.60;70.60;;;;;;4977577;28;87108;-76
2021/01/30 10:16:25;;;;;;;55.20;36.23;;;3.60;70.30;;;;;;4976464;28;87895;-75
2021/01/30 10:18:56;;;;;;;50.40;33.70;;;3.60;70.70;;;;;;4976928;28;88252;-76
2021/01/30 10:21:37;;;;;;;42.17;33.17;;;3.60;70.10;;;;;;4961402;28;91329;-74
2021/01/30 10:24:30;;;;;;;56.05;38.10;;;3.60;72.80;;;;;;4977057;28;87907;-75
2021/01/30 10:27:17;;;;;;;57.27;38.33;;;3.70;70.50;;;;;;4958538;28;88180;-75
2021/01/30 10:29:44;;;;;;;46.17;31.87;;;3.90;70.50;;;;;;4976269;28;88257;-75
2021/01/30 10:32:19;;;;;;;40.87;30.73;;;3.90;69.90;;;;;;5008502;28;87951;-75
2021/01/30 10:35:14;;;;;;;45.53;31.07;;;3.90;69.40;;;;;;4975771;28;86934;-76
2021/01/30 10:38:02;;;;;;;45.93;31.80;;;3.80;69.50;;;;;;4976346;28;87312;-76
2021/01/30 10:40:35;;;;;;;44.20;31.93;;;3.90;69.90;;;;;;4964933;28;91450;-77
2021/01/30 10:43:32;;;;;;;39.53;30.73;;;3.90;69.80;;;;;;4979763;28;90382;-76
2021/01/30 10:46:01;;;;;;;41.10;29.60;;;3.90;71.00;;;;;;4994111;28;87401;-78
2021/01/30 10:48:33;;;;;;;47.33;31.40;;;3.90;69.90;;;;;;4963539;28;87095;-77
2021/01/30 10:51:04;;;;;;;;;;;3.90;70.90;;;;;;4985446;28;92749;-76
2021/01/30 10:53:37;;;;;;;45.33;30.47;;;4.10;71.50;;;;;;5004747;28;88537;-76
2021/01/30 10:56:21;;;;;;;43.87;30.00;;;4.40;70.00;;;;;;4985978;28;87027;-77
2021/01/30 10:58:48;;;;;;;44.97;30.83;;;4.50;69.50;;;;;;5002153;28;87762;-74
2021/01/30 11:01:17;;;;;;;48.30;33.53;;;4.50;69.20;;;;;;5000810;28;88104;-77
2021/01/30 11:03:51;;;;;;;42.57;31.70;;;4.50;68.90;;;;;;5002018;28;91179;-75
2021/01/30 11:06:30;;;;;;;43.80;31.87;;;4.30;68.20;;;;;;4980326;28;87623;-76
2021/01/30 11:09:11;;;;;;;45.50;32.50;;;4.20;68.50;;;;;;4973903;28;87007;-76
2021/01/30 11:11:37;;;;;;;45.73;31.23;;;4.10;68.90;;;;;;4991032;28;88291;-75
2021/01/30 11:14:18;;;;;;;50.17;34.83;;;4.00;69.10;;;;;;4973334;28;90668;-76
2021/01/30 11:16:45;;;;;;;52.15;34.10;;;3.90;69.10;;;;;;4987722;28;88568;-75
2021/01/30 11:19:22;;;;;;;49.57;34.03;;;3.90;69.90;;;;;;4961920;28;87300;-78
2021/01/30 11:22:01;;;;;;;46.03;34.03;;;3.80;69.60;;;;;;5010221;28;89637;-76
2021/01/30 11:24:33;;;;;;;45.97;34.47;;;3.80;70.20;;;;;;5143478;22;87647;-75
2021/01/30 11:26:59;;;;;;;;;;;3.80;70.50;;;;;;4942422;28;87407;-76
2021/01/30 11:29:42;;;;;;;46.90;34.47;;;3.80;70.60;;;;;;4940956;28;87415;-75
2021/01/30 11:32:12;;;;;;;43.80;33.63;;;3.80;70.90;;;;;;4937985;28;88060;-76
2021/01/30 11:34:39;;;;;;;49.33;35.00;;;3.80;71.10;;;;;;4941921;28;91421;-74
2021/01/30 11:37:06;;;;;;;46.47;31.90;;;3.80;70.90;;;;;;4937747;28;87026;-75
2021/01/30 11:39:34;;;;;;;50.57;33.73;;;3.80;71.60;;;;;;4938603;28;87756;-75
2021/01/30 11:42:01;;;;;;;50.67;34.17;;;3.70;71.90;;;;;;4940512;28;92510;-75
2021/01/30 11:44:27;;;;;;;42.27;32.23;;;3.80;71.70;;;;;;4958730;28;91652;-74
2021/01/30 11:46:54;;;;;;;42.40;31.50;;;3.80;70.70;;;;;;4957010;28;86963;-76
2021/01/30 11:49:20;;;;;;;45.90;31.63;;;3.80;70.40;;;;;;4945124;28;87094;-75
2021/01/30 11:51:46;;;;;;;44.10;30.40;;;3.80;71.00;;;;;;4958316;28;88286;-70
2021/01/30 11:54:13;;;;;;;44.47;31.70;;;3.80;71.00;;;;;;4939862;28;89054;-73
2021/01/30 11:56:39;;;;;;;39.80;29.47;;;3.90;71.00;;;;;;4939507;28;87106;-70
2021/01/30 11:59:06;;;;;;;36.13;26.73;;;3.90;70.80;;;;;;4955081;28;88408;-70
2021/01/30 12:01:32;;;;;;;37.60;26.77;;;3.90;70.00;;;;;;4955248;28;91146;-70
2021/01/30 12:03:58;;;;;;;34.03;24.77;;;3.90;70.80;;;;;;4938089;28;91038;-70
2021/01/30 12:06:25;;;;;;;32.97;23.83;;;3.90;70.60;;;;;;4940042;28;88127;-70
2021/01/30 12:08:51;;;;;;;34.07;23.60;;;3.90;70.10;;;;;;4938765;28;87563;-70
2021/01/30 12:11:18;;;;;;;30.83;22.80;;;3.90;70.20;;;;;;4939008;28;91411;-70
2021/01/30 12:13:44;;;;;;;31.27;21.97;;;3.90;69.90;;;;;;4940622;28;88032;-70
2021/01/30 12:16:10;;;;;;;29.80;21.10;;;3.90;69.20;;;;;;4938438;28;86939;-70
2021/01/30 12:18:36;;;;;;;32.77;22.70;;;3.90;69.60;;;;;;4940723;28;86953;-70
2021/01/30 12:21:03;;;;;;;25.30;20.53;;;4.00;69.70;;;;;;4941476;28;88209;-70
2021/01/30 12:23:29;;;;;;;26.63;20.43;;;4.10;69.20;;;;;;4941940;28;90921;-70
2021/01/30 12:25:55;;;;;;;27.60;20.50;;;4.10;69.30;;;;;;4958231;28;86822;-70
2021/01/30 12:28:33;;;;;;;23.97;18.27;;;4.20;69.00;;;;;;4958511;28;87064;-70
2021/01/30 12:31:00;;;;;;;22.00;15.97;;;4.20;68.80;;;;;;4940889;28;87940;-70
2021/01/30 12:33:26;;;;;;;22.23;15.93;;;4.20;67.70;;;;;;4942180;28;90218;-70
2021/01/30 12:35:52;;;;;;;22.30;16.07;;;4.20;67.80;;;;;;4941702;28;86952;-70
2021/01/30 12:38:18;;;;;;;21.27;16.07;;;4.10;68.20;;;;;;4942060;28;87834;-70
2021/01/30 12:40:46;;;;;;;19.53;14.40;;;4.10;68.60;;;;;;4940178;28;87758;-70
2021/01/30 12:43:18;;;;;;;24.10;15.67;;;4.00;68.50;;;;;;4941190;28;91311;-70
2021/01/30 12:45:45;;;;;;;22.30;15.13;;;4.00;68.30;;;;;;4942510;28;87169;-70
2021/01/30 12:48:11;;;;;;;24.47;16.70;;;4.00;68.90;;;;;;4941568;28;87966;-70
2021/01/30 12:50:37;;;;;;;21.33;15.77;;;4.00;69.00;;;;;;4941745;28;91136;-70
2021/01/30 12:53:03;;;;;;;35.07;22.23;;;4.00;68.90;;;;;;4941293;28;88214;-70
2021/01/30 12:55:29;;;;;;;24.37;17.70;;;3.90;69.60;;;;;;4941443;28;88386;-70
2021/01/30 12:57:55;;;;;;;21.57;16.07;;;3.90;69.80;;;;;;4941218;28;87132;-70
2021/01/30 13:00:24;;;;;;;21.13;16.43;;;3.90;69.60;;;;;;4943209;28;87574;-70
2021/01/30 13:02:50;;;;;;;23.43;17.07;;;3.90;69.80;;;;;;4941757;28;91351;-70
2021/01/30 13:05:18;;;;;;;30.13;18.00;;;3.80;70.00;;;;;;4941285;28;86793;-70
2021/01/30 13:07:44;;;;;;;24.50;15.93;;;3.80;70.00;;;;;;4941783;28;88064;-70
2021/01/30 13:10:13;;;;;;;24.17;16.73;;;3.80;69.90;;;;;;4941226;28;88333;-71
2021/01/30 13:12:39;;;;;;;23.60;16.90;;;3.90;70.20;;;;;;4942072;28;87510;-70
2021/01/30 13:15:06;;;;;;;25.60;17.23;;;3.90;69.90;;;;;;4941016;28;87050;-70